Daytona Beach International Airport
KDAB : now visible

Airfield :











YOU CAN JOIN US ON...

 
LOGIN :

Register | Disclaimer

   EN    FR    IT 

 









Legend :    VFR   Marginal VFR   IFR   Intensive IFR   Very Intensive IFR
Visi :
Ceiling :
>= 8 km
>= 3000ft
5 to 8 km
1000 to 3000 ft
1500m to 5 km
500 to 1000 ft
800 to 1500m
200 to 500 ft
< 800m
< 200 ft
Symbols :   Thunderstorms  Fog  Heavy snow  Heavy precipitations  Wind > 20 kt







- Airport Elevation : 34 ft
- IATA code : DAB


KDAB - Daytona Beach International

CURRENT METAR :
  • 191153Z 17010G18KT 10SM BKN015 BKN024 BKN030 24/23 A2985 RMK AO2 SLP105 T02390228 10239 20233 53001

EXPIRED METARs :
  • 191053Z 17011G18KT 10SM FEW012 SCT080 SCT110 BKN180 23/22 A2983 RMK AO2 SLP100 T02330222
  • 190953Z 18009G19KT 10SM FEW012 FEW028 SCT080 23/22 A2984 RMK AO2 SLP102 T02330222

TAF KDAB
Valid from the 19 at 12:00 until the 20 at 12:00 UTC


191124Z 1912/2012 17012G20KT P6SM FEW012 BKN020 WS015/18043KT
FM191400 18017G24KT P6SM SCT015 BKN040 OVC080
FM191800 21020G30KT P6SM VCTS BKN035CB BKN060
TEMPO 1919/1921 2SM +TSRA BKN025CB OVC035
FM192200 23018G25KT P6SM VCSH BKN015
TEMPO 1922/2002 3SM SHRA
FM200200 24011KT P6SM SCT025 OVC040
KZJX FIR / North America



MET'MAP, your aeronautical weather chart ! - Copyright ORBIFLY December 2007 - Disclaimer

ORBIFLY MET'MAP TEAM :

Programming & Development : Alexandra Zaïnal
Concept & Development : Baudouin d'Aumeries
Co-Development & Prog : Marc-Olivier Méhu
Technical & hardware support : Manuel Goepfert

Contact : metmap@orbifly.com




SOURCES & CREDITS :

   NOAA       Earth
Advisory